Time;durP1;ratioP1;P1;durP2;ratioP2;P2;SDS_P1;SDS_P2;PMS_P1;PMS_P2;Temp;Humidity;BMP_temperature;BMP_pressure;BME280_temperature;BME280_humidity;BME280_pressure;Samples;Min_cycle;Max_cycle;Signal;HPM_P1;HPM_P2
2023/12/23 00:01:05;;;;;;;154.75;141.35;;;26.50;99.90;;;;;;4996344;28;20027;-68
2023/12/23 00:03:31;;;;;;;169.82;155.25;;;26.50;99.90;;;;;;4996506;28;20022;-68
2023/12/23 00:05:58;;;;;;;175.18;159.90;;;26.60;99.90;;;;;;5008196;28;20081;-68
2023/12/23 00:08:24;;;;;;;172.75;157.30;;;26.60;99.90;;;;;;5016222;28;20024;-68
2023/12/23 00:10:51;;;;;;;206.90;188.20;;;26.50;99.90;;;;;;5016109;28;20497;-68
2023/12/23 00:13:17;;;;;;;188.60;171.65;;;26.50;99.90;;;;;;5000080;28;20117;-68
2023/12/23 00:15:43;;;;;;;196.60;179.02;;;26.50;99.90;;;;;;4998499;28;20475;-67
2023/12/23 00:18:10;;;;;;;205.15;186.32;;;26.50;99.90;;;;;;5004474;28;20026;-69
2023/12/23 00:20:37;;;;;;;208.43;189.40;;;26.50;99.90;;;;;;4995215;28;20030;-68
2023/12/23 00:23:04;;;;;;;199.48;181.98;;;26.60;99.90;;;;;;4996216;28;20472;-67
2023/12/23 00:25:31;;;;;;;196.85;178.57;;;26.60;99.90;;;;;;4996161;28;20033;-68
2023/12/23 00:27:57;;;;;;;225.60;204.77;;;26.60;99.90;;;;;;4996007;28;20027;-68
2023/12/23 00:30:24;;;;;;;241.23;219.10;;;26.70;99.90;;;;;;4996059;28;20026;-69
2023/12/23 00:32:51;;;;;;;249.57;227.05;;;26.70;99.90;;;;;;4995840;28;20025;-68
2023/12/23 00:35:17;;;;;;;246.20;223.32;;;26.70;99.90;;;;;;4995853;28;20030;-69
2023/12/23 00:37:44;;;;;;;239.75;217.98;;;26.70;99.90;;;;;;5008462;28;20022;-69
2023/12/23 00:40:10;;;;;;;263.75;238.05;;;26.80;99.90;;;;;;5015057;28;20482;-68
2023/12/23 00:42:37;;;;;;;275.02;249.60;;;26.80;99.90;;;;;;5015367;28;20022;-67
2023/12/23 00:45:04;;;;;;;368.25;331.25;;;26.80;99.90;;;;;;5015293;28;20095;-68
2023/12/23 00:47:31;;;;;;;360.45;323.92;;;26.80;99.90;;;;;;5015109;28;20017;-69
2023/12/23 00:49:57;;;;;;;374.17;336.80;;;26.80;99.90;;;;;;5003334;28;20365;-68
2023/12/23 00:52:24;;;;;;;319.38;288.63;;;26.80;99.90;;;;;;4995657;28;20019;-69
2023/12/23 00:54:50;;;;;;;312.13;282.65;;;26.90;99.90;;;;;;4995292;28;20022;-68
2023/12/23 00:57:17;;;;;;;293.42;266.05;;;26.90;99.90;;;;;;4995498;28;20019;-68
2023/12/23 00:59:43;;;;;;;278.27;251.85;;;26.90;99.90;;;;;;4995437;28;20026;-68
2023/12/23 01:02:10;;;;;;;302.27;273.85;;;27.00;99.90;;;;;;4995171;28;20018;-68
2023/12/23 01:04:38;;;;;;;305.55;276.80;;;27.10;99.90;;;;;;4995364;28;20029;-69
2023/12/23 01:07:04;;;;;;;319.73;288.45;;;27.10;99.90;;;;;;4995386;28;20436;-70
2023/12/23 01:09:31;;;;;;;308.38;278.17;;;27.20;99.90;;;;;;4995106;28;20166;-69
2023/12/23 01:11:57;;;;;;;327.25;295.27;;;27.20;99.90;;;;;;4995274;28;20078;-70
2023/12/23 01:14:24;;;;;;;276.70;250.90;;;27.30;99.90;;;;;;4995013;28;20041;-69
2023/12/23 01:16:50;;;;;;;272.58;246.95;;;27.30;99.90;;;;;;4994944;28;20029;-69
2023/12/23 01:19:17;;;;;;;247.60;225.10;;;27.40;99.90;;;;;;4995139;28;20026;-69
2023/12/23 01:21:44;;;;;;;253.85;230.85;;;27.40;99.90;;;;;;4994911;28;20114;-69
2023/12/23 01:24:10;;;;;;;234.52;213.27;;;27.40;99.90;;;;;;4994843;28;20106;-69
2023/12/23 01:26:37;;;;;;;268.40;242.98;;;27.50;99.90;;;;;;4994819;28;20022;-68
2023/12/23 01:29:03;;;;;;;242.93;220.55;;;27.60;99.90;;;;;;4994870;28;20022;-69
2023/12/23 01:31:30;;;;;;;275.63;250.23;;;27.60;99.90;;;;;;4994595;28;20077;-67
2023/12/23 01:33:56;;;;;;;270.15;245.05;;;27.70;99.90;;;;;;4994875;28;20031;-67
2023/12/23 01:36:23;;;;;;;268.83;243.98;;;27.70;99.90;;;;;;4994824;28;20088;-67
2023/12/23 01:38:49;;;;;;;264.58;240.05;;;27.80;99.90;;;;;;4994838;28;20034;-69
2023/12/23 01:41:16;;;;;;;237.65;216.18;;;27.90;99.90;;;;;;4994454;28;20431;-70
2023/12/23 01:43:42;;;;;;;275.27;249.57;;;27.90;99.90;;;;;;4993794;28;20038;-71
2023/12/23 01:46:09;;;;;;;265.73;241.57;;;27.90;99.90;;;;;;4994609;28;20101;-72
2023/12/23 01:48:40;;;;;;;250.27;227.70;;;28.00;99.90;;;;;;4994381;28;20122;-71
2023/12/23 01:51:08;;;;;;;243.82;222.35;;;28.10;99.90;;;;;;4994530;28;20026;-69
2023/12/23 01:53:35;;;;;;;208.52;190.13;;;28.20;99.90;;;;;;4994373;28;20518;-68
2023/12/23 01:56:03;;;;;;;240.40;218.15;;;28.20;99.90;;;;;;4994675;28;20054;-70
2023/12/23 01:58:30;;;;;;;231.55;210.63;;;28.20;99.90;;;;;;4994348;28;20037;-69
2023/12/23 02:00:56;;;;;;;258.42;234.57;;;28.30;99.90;;;;;;4985578;28;20078;-68
2023/12/23 02:03:23;;;;;;;211.88;193.00;;;28.20;99.90;;;;;;4991352;28;20014;-69
2023/12/23 02:05:50;;;;;;;264.38;240.20;;;28.40;99.90;;;;;;4994230;28;20022;-70
2023/12/23 02:08:17;;;;;;;273.20;247.82;;;28.40;99.90;;;;;;4994147;28;20032;-69
2023/12/23 02:10:44;;;;;;;272.60;246.73;;;28.50;99.90;;;;;;4993971;28;20101;-69
2023/12/23 02:13:25;;;;;;;263.40;239.38;;;28.50;99.90;;;;;;5004623;28;20034;-70
2023/12/23 02:15:52;;;;;;;295.30;267.57;;;28.60;99.90;;;;;;4999731;28;20085;-68
2023/12/23 02:18:19;;;;;;;228.85;208.38;;;28.60;99.90;;;;;;5013318;28;20033;-69
2023/12/23 02:20:51;;;;;;;254.52;231.75;;;28.70;99.90;;;;;;4994041;28;20476;-67
2023/12/23 02:23:18;;;;;;;279.42;253.65;;;28.70;99.90;;;;;;4993880;28;20092;-69
2023/12/23 02:25:51;;;;;;;264.95;240.45;;;28.80;99.90;;;;;;4993960;28;20027;-73
2023/12/23 02:28:20;;;;;;;265.88;241.63;;;28.80;99.90;;;;;;4993952;28;20026;-65
2023/12/23 02:30:49;;;;;;;260.33;235.75;;;28.80;99.90;;;;;;4994166;28;20027;-68
2023/12/23 02:33:16;;;;;;;292.92;265.40;;;28.80;99.90;;;;;;4993920;28;20030;-67
2023/12/23 02:35:43;;;;;;;308.17;279.13;;;28.90;99.90;;;;;;4993736;28;20031;-67
2023/12/23 02:38:10;;;;;;;302.35;273.52;;;28.90;99.90;;;;;;4994060;28;20180;-69
2023/12/23 02:40:36;;;;;;;352.65;317.40;;;29.00;99.90;;;;;;4993523;28;20053;-69
2023/12/23 02:43:03;;;;;;;403.08;361.40;;;29.00;99.90;;;;;;4993458;28;20458;-67
2023/12/23 02:45:29;;;;;;;432.75;387.60;;;29.00;99.90;;;;;;4993522;28;20027;-69
2023/12/23 02:47:56;;;;;;;362.45;326.10;;;29.00;99.90;;;;;;4993911;28;20025;-68
2023/12/23 02:50:22;;;;;;;342.08;308.38;;;29.00;99.90;;;;;;4993704;28;20022;-69
2023/12/23 02:52:49;;;;;;;347.17;313.10;;;29.10;99.90;;;;;;4993566;28;20030;-68
2023/12/23 02:55:18;;;;;;;341.15;306.98;;;29.10;99.90;;;;;;4993656;28;20105;-68
2023/12/23 02:57:44;;;;;;;318.00;287.25;;;29.10;99.90;;;;;;4993495;28;20109;-68
2023/12/23 03:00:12;;;;;;;324.88;292.85;;;29.10;99.90;;;;;;4987501;28;20066;-68
2023/12/23 03:02:38;;;;;;;336.88;303.17;;;29.20;99.90;;;;;;4974170;28;20504;-68
2023/12/23 03:05:05;;;;;;;328.08;295.77;;;29.20;99.90;;;;;;4974233;28;20093;-68
2023/12/23 03:07:32;;;;;;;352.00;316.05;;;29.20;99.90;;;;;;4973986;28;20019;-68
2023/12/23 03:09:59;;;;;;;331.48;298.27;;;29.20;99.90;;;;;;4974243;28;20062;-68
2023/12/23 03:12:25;;;;;;;366.77;327.95;;;29.20;99.90;;;;;;4974153;28;20023;-69
2023/12/23 03:14:51;;;;;;;350.25;312.98;;;29.30;99.90;;;;;;4973816;28;20472;-67
2023/12/23 03:17:18;;;;;;;317.10;285.98;;;29.30;99.90;;;;;;4974139;28;20023;-68
2023/12/23 03:19:44;;;;;;;309.35;278.80;;;29.40;99.90;;;;;;4974041;28;20023;-68
2023/12/23 03:22:11;;;;;;;300.35;271.17;;;29.40;99.90;;;;;;4973811;28;20023;-68
2023/12/23 03:24:37;;;;;;;302.45;273.55;;;29.40;99.90;;;;;;4974071;28;20078;-68
2023/12/23 03:27:04;;;;;;;283.38;256.77;;;29.50;99.90;;;;;;4973863;28;20109;-67
2023/12/23 03:29:30;;;;;;;289.88;261.90;;;29.60;99.90;;;;;;4973787;28;20022;-67
2023/12/23 03:31:57;;;;;;;262.55;238.18;;;29.80;99.90;;;;;;4977829;28;20023;-68
2023/12/23 03:34:23;;;;;;;266.23;240.95;;;29.80;99.90;;;;;;5008951;28;20113;-67
2023/12/23 03:36:50;;;;;;;265.10;240.25;;;29.80;99.90;;;;;;4993190;28;20027;-69
2023/12/23 03:39:16;;;;;;;266.45;241.88;;;29.90;99.90;;;;;;5003354;28;20026;-68
2023/12/23 03:41:43;;;;;;;308.58;278.55;;;29.90;99.90;;;;;;5012653;28;20494;-69
2023/12/23 03:44:09;;;;;;;282.92;256.05;;;30.00;99.90;;;;;;5012714;28;20052;-68
2023/12/23 03:46:36;;;;;;;260.08;235.63;;;30.00;99.90;;;;;;5009149;28;20101;-68
2023/12/23 03:49:02;;;;;;;276.67;250.57;;;30.10;99.90;;;;;;4993247;28;20029;-68
2023/12/23 03:51:29;;;;;;;281.73;255.68;;;30.10;99.90;;;;;;4993163;28;20045;-68
2023/12/23 03:53:55;;;;;;;327.10;295.65;;;30.10;99.90;;;;;;4993136;28;20145;-68
2023/12/23 03:56:22;;;;;;;289.75;262.20;;;30.20;99.90;;;;;;4994705;28;20022;-68
2023/12/23 03:58:48;;;;;;;334.38;301.38;;;30.20;99.90;;;;;;4996679;28;20033;-67
2023/12/23 04:01:17;;;;;;;340.45;306.67;;;30.20;99.90;;;;;;4995966;28;20053;-70
2023/12/23 04:03:45;;;;;;;330.90;298.25;;;30.20;99.90;;;;;;4996550;28;20015;-70
2023/12/23 04:06:11;;;;;;;347.00;312.30;;;30.20;99.90;;;;;;4996531;28;20052;-68
2023/12/23 04:08:41;;;;;;;290.23;262.95;;;30.30;99.90;;;;;;4996336;28;20515;-69
2023/12/23 04:11:07;;;;;;;298.33;270.20;;;30.30;99.90;;;;;;4996385;28;20034;-71
2023/12/23 04:13:34;;;;;;;262.08;237.27;;;30.30;99.90;;;;;;5008413;28;20402;-69
2023/12/23 04:16:04;;;;;;;281.73;255.05;;;30.30;99.90;;;;;;5015767;28;20026;-70
2023/12/23 04:18:30;;;;;;;260.02;236.38;;;30.40;99.90;;;;;;4997912;28;20440;-71
2023/12/23 04:20:57;;;;;;;291.02;263.75;;;30.40;99.90;;;;;;4995210;28;20033;-71
2023/12/23 04:23:24;;;;;;;281.92;255.68;;;30.40;99.90;;;;;;4983392;28;20195;-69
2023/12/23 04:25:50;;;;;;;273.50;247.82;;;30.50;99.90;;;;;;4977256;28;20027;-70
2023/12/23 04:28:24;;;;;;;283.67;257.08;;;30.50;99.90;;;;;;4977184;28;20018;-70
2023/12/23 04:30:56;;;;;;;278.80;252.07;;;30.50;99.90;;;;;;4977142;28;20026;-68
2023/12/23 04:33:23;;;;;;;236.68;214.95;;;30.50;99.90;;;;;;4976791;28;20106;-68
2023/12/23 04:35:50;;;;;;;270.60;245.13;;;30.60;99.90;;;;;;4976623;28;20114;-69
2023/12/23 04:38:16;;;;;;;284.75;258.10;;;30.60;99.90;;;;;;4976882;28;20027;-69
2023/12/23 04:40:43;;;;;;;283.50;256.88;;;30.60;99.90;;;;;;4976343;28;20090;-68
2023/12/23 04:43:09;;;;;;;260.02;235.93;;;30.70;99.90;;;;;;4976680;28;20110;-69
2023/12/23 04:45:36;;;;;;;263.25;238.68;;;30.70;99.90;;;;;;4976553;28;20027;-69
2023/12/23 04:48:03;;;;;;;316.90;286.55;;;30.80;99.90;;;;;;4976617;28;20041;-69
2023/12/23 04:50:29;;;;;;;309.60;279.35;;;30.90;99.90;;;;;;4976542;28;20023;-70
2023/12/23 04:52:56;;;;;;;282.65;255.77;;;31.00;99.90;;;;;;4976439;28;20396;-69
2023/12/23 04:55:23;;;;;;;247.77;225.30;;;31.10;99.90;;;;;;4976408;28;20419;-68
2023/12/23 04:57:49;;;;;;;295.58;267.77;;;31.10;99.90;;;;;;4976272;28;20031;-69
2023/12/23 05:00:16;;;;;;;298.00;269.52;;;31.20;99.90;;;;;;4976161;28;20121;-69
2023/12/23 05:02:42;;;;;;;280.63;254.55;;;31.10;99.90;;;;;;4976378;28;20026;-69
2023/12/23 05:05:09;;;;;;;286.95;260.38;;;31.10;99.90;;;;;;4979560;28;20033;-68
2023/12/23 05:07:36;;;;;;;311.67;281.35;;;31.20;99.90;;;;;;4995123;28;20061;-69
2023/12/23 05:10:03;;;;;;;341.85;308.23;;;31.20;99.90;;;;;;4995482;28;20435;-66
2023/12/23 05:12:29;;;;;;;330.45;298.10;;;31.30;99.90;;;;;;4995442;28;20031;-67
2023/12/23 05:14:56;;;;;;;379.23;341.25;;;31.50;99.90;;;;;;4995460;28;20018;-67
2023/12/23 05:17:22;;;;;;;355.33;319.65;;;31.50;99.90;;;;;;4995372;28;20471;-66
2023/12/23 05:19:49;;;;;;;355.33;319.80;;;31.50;99.90;;;;;;4995215;28;20042;-67
2023/12/23 05:22:15;;;;;;;294.42;266.17;;;31.50;99.90;;;;;;4995472;28;20468;-67
2023/12/23 05:24:42;;;;;;;303.92;274.75;;;31.70;99.90;;;;;;4995215;28;20030;-72
2023/12/23 05:27:11;;;;;;;321.00;289.77;;;31.70;99.90;;;;;;4995259;28;20098;-72
2023/12/23 05:29:37;;;;;;;278.55;252.43;;;31.70;99.90;;;;;;4994199;28;20022;-66
2023/12/23 05:32:05;;;;;;;312.95;282.75;;;31.70;99.90;;;;;;4986156;28;20514;-67
2023/12/23 05:34:31;;;;;;;337.75;304.45;;;31.70;99.90;;;;;;4985633;28;20030;-66
2023/12/23 05:36:58;;;;;;;381.50;342.27;;;31.70;99.90;;;;;;4986754;28;20034;-68
2023/12/23 05:39:24;;;;;;;342.05;308.23;;;31.70;99.90;;;;;;4995010;28;20476;-67
2023/12/23 05:41:51;;;;;;;274.65;248.60;;;31.70;99.90;;;;;;4994882;28;20141;-67
2023/12/23 05:44:17;;;;;;;295.90;267.70;;;31.70;99.90;;;;;;4994897;28;20014;-66
2023/12/23 05:46:44;;;;;;;289.38;262.10;;;31.70;99.90;;;;;;4994928;28;20471;-68
2023/12/23 05:49:10;;;;;;;280.70;253.77;;;31.70;99.90;;;;;;4992061;28;20593;-67
2023/12/23 05:51:37;;;;;;;280.90;254.63;;;31.70;99.90;;;;;;4983665;28;20097;-66
2023/12/23 05:54:04;;;;;;;230.73;210.10;;;31.70;99.90;;;;;;4984878;28;20456;-66
2023/12/23 05:56:30;;;;;;;226.35;205.85;;;31.70;99.90;;;;;;4985548;28;20043;-66
2023/12/23 05:58:57;;;;;;;242.07;219.82;;;31.70;99.90;;;;;;4983496;28;20468;-66
2023/12/23 06:01:23;;;;;;;263.85;239.43;;;31.80;99.90;;;;;;4992297;28;20113;-66
2023/12/23 06:03:50;;;;;;;251.57;228.43;;;31.70;99.90;;;;;;4984687;28;20030;-66
2023/12/23 06:06:17;;;;;;;268.27;243.48;;;31.70;99.90;;;;;;4984957;28;20014;-66
2023/12/23 06:08:43;;;;;;;238.90;216.85;;;31.70;99.90;;;;;;4983449;28;20089;-67
2023/12/23 06:11:11;;;;;;;237.73;216.13;;;31.70;99.90;;;;;;4984990;28;20089;-68
2023/12/23 06:13:37;;;;;;;260.25;236.15;;;31.70;99.90;;;;;;4996293;28;20034;-67
2023/12/23 06:16:06;;;;;;;235.70;214.27;;;31.70;99.90;;;;;;4976646;28;20446;-65
2023/12/23 06:18:33;;;;;;;264.58;239.93;;;31.60;99.90;;;;;;4989237;28;20037;-68
2023/12/23 06:21:00;;;;;;;249.50;226.77;;;31.60;99.90;;;;;;4990111;28;20034;-65
2023/12/23 06:23:26;;;;;;;246.57;224.10;;;31.70;99.90;;;;;;4994597;28;20026;-66
2023/12/23 06:25:53;;;;;;;248.82;225.88;;;31.70;99.90;;;;;;4994153;28;20030;-66
2023/12/23 06:28:19;;;;;;;228.20;206.82;;;31.70;99.90;;;;;;4994510;28;20033;-66
2023/12/23 06:30:46;;;;;;;248.18;225.23;;;31.70;99.90;;;;;;4994228;28;20046;-66
2023/12/23 06:33:12;;;;;;;244.10;221.73;;;31.70;99.90;;;;;;4994187;28;20030;-66
2023/12/23 06:35:39;;;;;;;245.23;222.65;;;31.70;99.90;;;;;;4994364;28;20034;-66
2023/12/23 06:38:05;;;;;;;230.95;210.15;;;31.70;99.90;;;;;;4993837;28;20054;-66
2023/12/23 06:40:32;;;;;;;228.98;208.32;;;31.70;99.90;;;;;;4984508;28;20070;-66
2023/12/23 06:42:58;;;;;;;235.50;214.05;;;31.80;99.90;;;;;;4986981;28;20077;-67
2023/12/23 06:45:25;;;;;;;197.20;179.85;;;31.80;99.90;;;;;;4991727;28;20018;-66
2023/12/23 06:47:51;;;;;;;239.75;217.85;;;31.80;99.90;;;;;;4990710;28;20069;-65
2023/12/23 06:50:18;;;;;;;256.23;232.70;;;31.90;99.90;;;;;;4994061;28;20522;-66
2023/12/23 06:52:44;;;;;;;245.30;222.68;;;32.00;99.90;;;;;;4994160;28;20022;-65
2023/12/23 06:55:11;;;;;;;236.23;215.10;;;32.10;99.90;;;;;;4994009;28;20022;-64
2023/12/23 06:57:39;;;;;;;263.38;239.13;;;32.20;99.90;;;;;;4993835;28;20443;-66
2023/12/23 07:00:07;;;;;;;257.13;233.45;;;32.20;99.90;;;;;;4993835;28;20484;-66
2023/12/23 07:02:34;;;;;;;223.80;203.40;;;32.30;99.90;;;;;;4993987;28;20015;-64
2023/12/23 07:05:00;;;;;;;236.23;214.90;;;32.40;99.90;;;;;;4984747;28;20027;-65
2023/12/23 07:07:27;;;;;;;252.82;229.68;;;32.40;99.90;;;;;;4985445;28;20022;-67
2023/12/23 07:09:53;;;;;;;273.77;248.30;;;32.30;99.90;;;;;;4993804;28;20018;-66
2023/12/23 07:12:20;;;;;;;223.77;203.43;;;32.50;99.90;;;;;;4993899;28;20030;-66
2023/12/23 07:14:46;;;;;;;241.40;219.30;;;32.60;99.90;;;;;;4986631;28;20034;-66
2023/12/23 07:17:13;;;;;;;240.73;219.00;;;32.70;99.90;;;;;;4993465;28;20077;-66
2023/12/23 07:19:39;;;;;;;241.20;219.43;;;32.80;99.90;;;;;;4993536;28;20027;-66
2023/12/23 07:22:06;;;;;;;262.88;238.70;;;32.80;99.90;;;;;;4993095;28;20491;-68
2023/12/23 07:24:32;;;;;;;264.60;240.25;;;32.90;99.90;;;;;;4987009;28;20379;-66
2023/12/23 07:27:02;;;;;;;255.82;232.50;;;32.90;99.90;;;;;;4982133;28;20031;-66
2023/12/23 07:29:29;;;;;;;265.85;241.43;;;32.90;99.90;;;;;;4983909;28;20114;-68
2023/12/23 07:31:55;;;;;;;282.45;256.08;;;32.90;99.90;;;;;;4988805;28;20049;-67
2023/12/23 07:34:21;;;;;;;231.80;210.93;;;33.00;99.90;;;;;;4988958;28;20022;-67
2023/12/23 07:36:48;;;;;;;260.80;236.55;;;33.00;99.90;;;;;;4988359;28;20484;-67
2023/12/23 07:39:14;;;;;;;241.18;219.10;;;33.00;99.90;;;;;;4988349;28;20498;-68
2023/12/23 07:41:41;;;;;;;274.70;248.65;;;33.10;99.90;;;;;;4985773;28;20101;-67
2023/12/23 07:44:08;;;;;;;267.10;242.48;;;33.10;99.90;;;;;;4986454;28;20018;-68
2023/12/23 07:46:34;;;;;;;253.95;230.43;;;33.20;99.90;;;;;;4986815;28;20384;-68
2023/12/23 07:49:01;;;;;;;255.18;231.73;;;33.20;99.90;;;;;;4988525;28;20503;-68
2023/12/23 07:51:27;;;;;;;291.73;264.00;;;33.20;99.90;;;;;;4989153;28;20377;-65
2023/12/23 07:53:54;;;;;;;303.90;274.95;;;33.20;99.90;;;;;;4989070;28;20093;-67
2023/12/23 07:56:20;;;;;;;311.85;281.83;;;33.20;99.90;;;;;;4988404;28;20034;-68
2023/12/23 07:58:47;;;;;;;373.05;335.15;;;33.30;99.90;;;;;;4982997;28;20019;-66
2023/12/23 08:01:13;;;;;;;320.58;288.80;;;33.20;99.90;;;;;;4986179;28;20467;-67
2023/12/23 08:03:40;;;;;;;302.90;273.63;;;33.20;99.90;;;;;;4987329;28;20058;-66
2023/12/23 08:06:06;;;;;;;288.50;261.10;;;33.30;99.90;;;;;;4988028;28;20015;-64
2023/12/23 08:08:33;;;;;;;295.92;267.90;;;33.30;99.90;;;;;;4986066;28;20025;-66
2023/12/23 08:10:59;;;;;;;304.42;275.42;;;33.30;99.90;;;;;;4987190;28;20023;-66
2023/12/23 08:13:28;;;;;;;273.88;248.23;;;33.40;99.90;;;;;;4985416;28;20453;-66
2023/12/23 08:15:55;;;;;;;275.15;249.15;;;33.40;99.90;;;;;;4985584;28;20061;-66
2023/12/23 08:18:21;;;;;;;253.85;230.60;;;33.40;99.90;;;;;;4987094;28;20029;-65
2023/12/23 08:20:48;;;;;;;242.70;220.93;;;33.40;99.90;;;;;;4984370;28;20026;-71
2023/12/23 08:23:15;;;;;;;234.18;213.07;;;33.30;99.90;;;;;;4977920;28;20069;-71
2023/12/23 08:25:41;;;;;;;256.65;233.02;;;33.40;99.90;;;;;;4990606;28;20050;-71
2023/12/23 08:28:08;;;;;;;231.15;210.30;;;33.40;99.90;;;;;;4995935;28;20559;-71
2023/12/23 08:30:34;;;;;;;234.57;213.43;;;33.40;99.90;;;;;;4995917;28;20065;-70
2023/12/23 08:33:01;;;;;;;255.65;231.90;;;33.40;99.90;;;;;;4995925;28;20069;-71
2023/12/23 08:35:27;;;;;;;205.63;187.27;;;33.40;99.90;;;;;;4996001;28;20076;-70
2023/12/23 08:37:54;;;;;;;233.10;212.07;;;33.40;99.90;;;;;;4995662;28;20045;-71
2023/12/23 08:40:20;;;;;;;245.43;222.80;;;33.50;99.90;;;;;;4995724;28;20109;-71
2023/12/23 08:42:47;;;;;;;239.15;217.48;;;33.50;99.90;;;;;;4995206;28;20020;-72
2023/12/23 08:45:13;;;;;;;237.07;215.60;;;33.50;99.90;;;;;;4995641;28;20019;-72
2023/12/23 08:47:40;;;;;;;208.10;189.27;;;33.40;99.90;;;;;;4984088;28;20057;-68
2023/12/23 08:50:06;;;;;;;242.05;219.65;;;33.50;99.90;;;;;;4976307;28;20054;-66
2023/12/23 08:52:33;;;;;;;243.40;221.27;;;33.40;99.90;;;;;;4976155;28;20472;-66
2023/12/23 08:54:59;;;;;;;229.55;209.05;;;33.40;99.90;;;;;;4976149;28;20053;-67
2023/12/23 08:57:26;;;;;;;222.20;202.50;;;33.50;99.90;;;;;;4976176;28;20023;-67
2023/12/23 08:59:52;;;;;;;204.57;186.50;;;33.50;99.90;;;;;;4976031;28;20023;-66
2023/12/23 09:02:19;;;;;;;222.02;202.32;;;33.50;99.90;;;;;;4976150;28;20027;-68
2023/12/23 09:04:46;;;;;;;187.05;170.88;;;33.50;99.90;;;;;;4976028;28;20023;-66
2023/12/23 09:07:13;;;;;;;192.50;175.75;;;33.50;99.90;;;;;;4976012;28;20471;-65
2023/12/23 09:09:41;;;;;;;211.95;192.20;;;33.50;99.90;;;;;;4975794;28;20041;-65
2023/12/23 09:12:08;;;;;;;214.23;195.07;;;33.50;99.90;;;;;;4975868;28;20042;-68
2023/12/23 09:14:35;;;;;;;193.82;177.10;;;33.50;99.90;;;;;;4975894;28;20019;-67
2023/12/23 09:17:01;;;;;;;190.65;174.05;;;33.50;99.90;;;;;;4978912;28;20022;-67
2023/12/23 09:19:27;;;;;;;208.18;189.77;;;33.50;99.90;;;;;;4982124;28;20510;-66
2023/12/23 09:21:55;;;;;;;202.10;184.30;;;33.50;99.90;;;;;;4984122;28;20480;-68
2023/12/23 09:24:22;;;;;;;209.43;190.85;;;33.50;99.90;;;;;;4975806;28;20063;-66
2023/12/23 09:26:48;;;;;;;207.25;189.00;;;33.40;99.90;;;;;;4983809;28;20018;-68
2023/12/23 09:29:15;;;;;;;210.07;191.40;;;33.50;99.90;;;;;;4994993;28;20102;-67
2023/12/23 09:31:42;;;;;;;198.57;181.27;;;33.50;99.90;;;;;;4994562;28;20030;-68
2023/12/23 09:34:08;;;;;;;207.95;189.65;;;33.50;99.90;;;;;;4994954;28;20049;-66
2023/12/23 09:36:35;;;;;;;199.88;182.05;;;33.50;99.90;;;;;;4994714;28;20057;-67
2023/12/23 09:39:02;;;;;;;192.57;175.70;;;33.50;99.90;;;;;;4994625;28;20030;-67
2023/12/23 09:41:28;;;;;;;191.70;174.82;;;33.40;99.90;;;;;;4993353;28;20046;-65
2023/12/23 09:43:55;;;;;;;201.60;183.98;;;33.40;99.90;;;;;;4991024;28;20072;-67
2023/12/23 09:46:22;;;;;;;211.80;192.30;;;33.40;99.90;;;;;;4995336;28;20109;-66
2023/12/23 09:48:48;;;;;;;172.02;157.18;;;33.40;99.90;;;;;;4994271;28;20030;-67
2023/12/23 09:51:17;;;;;;;182.60;166.63;;;33.50;99.90;;;;;;4995694;28;20026;-67
2023/12/23 09:53:47;;;;;;;198.32;180.93;;;33.50;99.90;;;;;;4995328;28;20076;-68
2023/12/23 09:56:15;;;;;;;176.85;161.55;;;33.40;99.90;;;;;;4995009;28;20030;-67
2023/12/23 11:10:43;;;;;;;1200.82;999.90;;;32.10;99.90;;;;;;5071986;28;20437;-67
2023/12/23 11:13:09;;;;;;;1084.65;971.90;;;32.10;99.90;;;;;;5071818;28;20052;-67
2023/12/23 11:15:39;;;;;;;985.13;884.53;;;32.10;99.90;;;;;;5071758;28;20300;-66
2023/12/23 11:18:06;;;;;;;949.65;854.03;;;32.20;99.90;;;;;;5071915;28;20025;-67
2023/12/23 11:20:35;;;;;;;941.78;846.22;;;32.30;99.90;;;;;;5059233;28;20045;-66
2023/12/23 11:23:34;;;;;;;857.35;771.63;;;32.40;99.90;;;;;;5050799;28;20039;-66
2023/12/23 11:26:02;;;;;;;856.42;769.33;;;32.40;99.90;;;;;;5046080;28;20029;-66
2023/12/23 11:28:31;;;;;;;825.63;741.80;;;32.40;99.90;;;;;;5049906;28;20037;-67
2023/12/23 11:30:59;;;;;;;835.63;750.47;;;32.50;99.90;;;;;;5049784;28;20036;-66
2023/12/23 11:33:28;;;;;;;806.38;725.72;;;32.40;99.90;;;;;;5049332;28;20017;-67
2023/12/23 11:35:58;;;;;;;823.70;740.90;;;32.50;99.90;;;;;;5048277;28;20032;-67
2023/12/23 11:38:29;;;;;;;819.80;737.97;;;32.40;99.90;;;;;;5050281;28;20025;-67
2023/12/23 11:40:56;;;;;;;802.23;722.40;;;32.40;99.90;;;;;;5048353;28;20025;-70
2023/12/23 11:43:23;;;;;;;789.13;709.25;;;32.30;99.90;;;;;;5049825;28;20243;-69
2023/12/23 11:45:51;;;;;;;792.47;711.20;;;32.30;99.90;;;;;;5049574;28;20020;-68
2023/12/23 11:48:20;;;;;;;777.00;697.03;;;32.20;99.90;;;;;;5049395;28;20489;-68
2023/12/23 11:50:47;;;;;;;776.13;695.30;;;32.20;99.90;;;;;;5049686;28;20029;-68
2023/12/23 11:53:15;;;;;;;798.08;715.88;;;32.20;99.90;;;;;;5049412;28;20025;-68
2023/12/23 11:56:01;;;;;;;799.10;720.42;;;32.20;99.90;;;;;;5049493;28;20027;-68
2023/12/23 11:58:27;;;;;;;766.15;689.03;;;32.20;99.90;;;;;;5049316;28;20185;-68
2023/12/23 12:00:54;;;;;;;769.30;691.97;;;32.10;99.90;;;;;;5049630;28;20382;-69
2023/12/23 12:03:23;;;;;;;732.15;657.47;;;32.10;99.90;;;;;;5048439;28;20048;-68
2023/12/23 12:05:56;;;;;;;745.47;670.10;;;32.00;99.90;;;;;;5048918;28;20021;-69
2023/12/23 12:08:22;;;;;;;756.20;679.03;;;32.00;99.90;;;;;;5048879;28;20108;-69
2023/12/23 12:10:49;;;;;;;748.78;671.50;;;32.00;99.90;;;;;;5049413;28;20023;-68
2023/12/23 12:13:16;;;;;;;760.45;682.30;;;32.00;99.90;;;;;;5037747;28;20034;-69
2023/12/23 12:15:43;;;;;;;744.75;668.38;;;32.00;99.90;;;;;;5029303;28;20025;-68
2023/12/23 12:18:11;;;;;;;740.25;663.83;;;32.00;99.90;;;;;;5029414;28;20030;-68
2023/12/23 12:20:38;;;;;;;713.80;640.95;;;32.00;99.90;;;;;;5023769;28;20030;-69
2023/12/23 12:23:04;;;;;;;737.90;662.58;;;32.00;99.90;;;;;;5015978;28;20029;-68
2023/12/23 12:25:31;;;;;;;741.58;666.00;;;32.00;99.90;;;;;;5016060;28;20471;-69
2023/12/23 12:27:58;;;;;;;744.45;666.65;;;32.00;99.90;;;;;;5033179;28;20076;-68
2023/12/23 12:30:24;;;;;;;761.83;681.90;;;32.00;99.90;;;;;;5026473;28;20052;-68
2023/12/23 12:32:52;;;;;;;754.53;674.58;;;32.00;99.90;;;;;;5035051;28;20036;-68
2023/12/23 12:35:18;;;;;;;771.78;690.10;;;31.90;99.90;;;;;;5015990;28;20029;-68
2023/12/23 12:37:45;;;;;;;741.25;662.83;;;31.80;99.90;;;;;;5015689;28;20053;-68
2023/12/23 12:40:13;;;;;;;743.83;665.72;;;31.80;99.90;;;;;;5015948;28;20029;-68
2023/12/23 12:42:50;;;;;;;751.08;671.70;;;31.80;99.90;;;;;;5015768;28;20092;-69
2023/12/23 12:45:17;;;;;;;734.70;657.50;;;31.70;99.90;;;;;;5015643;28;20022;-68
2023/12/23 12:47:47;;;;;;;776.00;694.35;;;31.70;99.90;;;;;;5015746;28;20026;-69
2023/12/23 12:50:18;;;;;;;742.75;663.17;;;31.60;99.90;;;;;;5015609;28;20419;-68
2023/12/23 12:52:45;;;;;;;729.65;651.42;;;31.50;99.90;;;;;;5015846;28;20437;-68
2023/12/23 12:55:11;;;;;;;771.17;690.17;;;31.50;99.90;;;;;;5015519;28;20026;-69
2023/12/23 12:57:38;;;;;;;767.65;686.15;;;31.50;99.90;;;;;;5015609;28;20029;-68
2023/12/23 13:00:07;;;;;;;746.70;667.45;;;31.50;99.90;;;;;;5015331;28;20037;-68
2023/12/23 13:02:34;;;;;;;740.65;660.47;;;31.50;99.90;;;;;;5015452;28;20471;-68
2023/12/23 13:05:01;;;;;;;756.15;674.28;;;31.40;99.90;;;;;;5015422;28;20109;-68
2023/12/23 13:07:27;;;;;;;780.15;697.97;;;31.30;99.90;;;;;;5015205;28;20029;-69
2023/12/23 13:09:54;;;;;;;794.33;710.65;;;31.30;99.90;;;;;;5015111;28;20153;-68
2023/12/23 13:12:20;;;;;;;751.70;671.42;;;31.30;99.90;;;;;;5026423;28;20467;-68
2023/12/23 13:14:46;;;;;;;749.28;670.22;;;31.30;99.90;;;;;;5033748;28;20406;-68
2023/12/23 13:17:13;;;;;;;764.30;683.72;;;31.30;99.90;;;;;;5034529;28;20018;-68
2023/12/23 13:19:39;;;;;;;727.28;649.47;;;31.20;99.90;;;;;;5034412;28;20104;-68